Time;durP1;ratioP1;P1;durP2;ratioP2;P2;SDS_P1;SDS_P2;PMS_P1;PMS_P2;Temp;Humidity;BMP_temperature;BMP_pressure;BME280_temperature;BME280_humidity;BME280_pressure;Samples;Min_cycle;Max_cycle;Signal;HPM_P1;HPM_P2
2022/03/25 00:00:31;;;;;;;;;;;;;;;-143.90;100.00;55043.72;2092667;28;19994;-64
2022/03/25 00:01:52;;;;;;;;;;;;;;;-143.90;100.00;54984.16;2091840;28;19974;-64
2022/03/25 00:03:13;;;;;;;;;;;;;;;-143.90;100.00;55021.88;2093793;28;19952;-64
2022/03/25 00:04:34;;;;;;;;;;;;;;;-143.90;100.00;55019.88;2093259;28;19927;-65
2022/03/25 00:05:54;;;;;;;;;;;;;;;-143.90;100.00;55000.03;2083470;28;19975;-64
2022/03/25 00:07:16;;;;;;;;;;;;;;;-143.90;100.00;55015.91;2089057;28;20001;-64
2022/03/25 00:08:36;;;;;;;;;;;;;;;-143.90;100.00;55004.00;2092871;28;20483;-64
2022/03/25 00:09:57;;;;;;;;;;;;;;;-143.90;100.00;54990.09;2093205;28;20015;-64
2022/03/25 00:11:18;;;;;;;;;;;;;;;-143.90;100.00;54954.38;2093682;28;20058;-64
2022/03/25 00:12:38;;;;;;;;;;;;;;;-143.90;100.00;54956.34;2093421;28;20020;-64
2022/03/25 00:13:59;;;;;;;;;;;;;;;-143.90;100.00;55023.84;2093179;28;19927;-65
2022/03/25 00:15:20;;;;;;;;;;;;;;;-143.90;100.00;54992.09;2092041;28;20569;-64
2022/03/25 00:16:41;;;;;;;;;;;;;;;-143.90;100.00;55004.00;2092722;28;19924;-64
2022/03/25 00:18:02;;;;;;;;;;;;;;;-143.90;100.00;54986.13;2092689;28;19928;-64
2022/03/25 00:19:23;;;;;;;;;;;;;;;-143.90;100.00;55004.00;2092327;28;19959;-64
2022/03/25 00:20:45;;;;;;;;;;;;;;;-143.90;100.00;54982.16;2093751;28;20037;-64
2022/03/25 00:22:05;;;;;;;;;;;;;;;-143.90;100.00;55015.91;2093289;28;19972;-64
2022/03/25 00:23:26;;;;;;;;;;;;;;;-143.90;100.00;54968.25;2092770;28;19920;-64
2022/03/25 00:24:46;;;;;;;;;;;;;;;-143.90;100.00;54968.25;2091829;28;19924;-64
2022/03/25 00:26:07;;;;;;;;;;;;;;;-143.90;100.00;54996.06;2092931;28;19969;-64
2022/03/25 00:27:28;;;;;;;;;;;;;;;-143.90;100.00;55027.81;2091885;28;19920;-64
2022/03/25 00:28:49;;;;;;;;;;;;;;;-143.90;100.00;54996.06;2093713;28;20448;-64
2022/03/25 00:30:10;;;;;;;;;;;;;;;-143.90;100.00;55015.91;2092338;28;19920;-63
2022/03/25 00:31:30;;;;;;;;;;;;;;;-143.90;100.00;55015.91;2091728;28;20090;-64
2022/03/25 00:32:54;;;;;;;;;;;;;;;-143.90;100.00;55057.59;2083891;28;19932;-64
2022/03/25 00:34:14;;;;;;;;;;;;;;;-143.90;100.00;54988.13;2085205;28;19961;-64
2022/03/25 00:35:35;;;;;;;;;;;;;;;-143.90;100.00;55007.97;2090333;28;19920;-63
2022/03/25 00:36:56;;;;;;;;;;;;;;;-143.90;100.00;54990.09;2094130;28;20896;-64
2022/03/25 00:38:18;;;;;;;;;;;;;;;-143.90;100.00;54996.06;2091703;28;19920;-64
2022/03/25 00:39:38;;;;;;;;;;;;;;;-143.90;100.00;54996.06;2084776;28;19921;-62
2022/03/25 00:40:59;;;;;;;;;;;;;;;-143.90;100.00;55013.94;2090155;28;19920;-64
2022/03/25 00:42:20;;;;;;;;;;;;;;;-143.90;100.00;54964.28;2093058;28;20891;-64
2022/03/25 00:43:42;;;;;;;;;;;;;;;-143.90;100.00;54994.06;2092421;28;20718;-64
2022/03/25 00:45:04;;;;;;;;;;;;;;;-143.90;100.00;55015.91;2084657;28;19927;-63
2022/03/25 00:46:26;;;;;;;;;;;;;;;-143.90;100.00;55013.94;2082284;28;19920;-64
2022/03/25 00:47:46;;;;;;;;;;;;;;;-143.90;100.00;55011.94;2090230;28;19928;-64
2022/03/25 00:49:07;;;;;;;;;;;;;;;-143.90;100.00;55007.97;2084574;28;19960;-64
2022/03/25 00:50:27;;;;;;;;;;;;;;;-143.90;100.00;55004.00;2088717;28;19921;-64
2022/03/25 00:51:48;;;;;;;;;;;;;;;-143.90;100.00;54980.19;2093505;28;19924;-63
2022/03/25 00:53:10;;;;;;;;;;;;;;;-143.90;100.00;54992.09;2093353;28;19978;-64
2022/03/25 00:54:31;;;;;;;;;;;;;;;-143.90;100.00;55000.03;2092032;28;20016;-65
2022/03/25 00:55:52;;;;;;;;;;;;;;;-143.90;100.00;55000.03;2092480;28;19920;-64
2022/03/25 00:57:12;;;;;;;;;;;;;;;-143.90;100.00;54988.13;2083991;28;19928;-64
2022/03/25 00:58:33;;;;;;;;;;;;;;;-143.90;100.00;55004.00;2090007;28;20454;-64
2022/03/25 00:59:54;;;;;;;;;;;;;;;-143.90;100.00;55000.03;2093390;28;19966;-64
2022/03/25 01:01:15;;;;;;;;;;;;;;;-143.90;100.00;55000.03;2092702;28;19920;-64
2022/03/25 01:02:36;;;;;;;;;;;;;;;-143.90;100.00;55019.88;2090838;28;22025;-64
2022/03/25 01:03:56;;;;;;;;;;;;;;;-143.90;100.00;55000.03;2092843;28;19927;-64
2022/03/25 01:05:18;;;;;;;;;;;;;;;-143.90;100.00;55017.91;2093792;28;20495;-64
2022/03/25 01:06:40;;;;;;;;;;;;;;;-143.90;100.00;55009.97;2082617;28;19933;-64
2022/03/25 01:08:01;;;;;;;;;;;;;;;-143.90;100.00;54986.13;2079487;28;20452;-64
2022/03/25 01:09:22;;;;;;;;;;;;;;;-143.90;100.00;55011.94;2088046;28;19920;-64
2022/03/25 01:10:43;;;;;;;;;;;;;;;-143.90;100.00;54976.19;2092338;28;20284;-64
2022/03/25 01:12:04;;;;;;;;;;;;;;;-143.90;100.00;54984.16;2092995;28;19924;-64
2022/03/25 01:13:24;;;;;;;;;;;;;;;-143.90;100.00;55000.03;2092024;28;20505;-64
2022/03/25 01:14:45;;;;;;;;;;;;;;;-143.90;100.00;54996.06;2083783;28;19920;-63
2022/03/25 01:16:08;;;;;;;;;;;;;;;-143.90;100.00;55000.03;2089139;28;19921;-63
2022/03/25 01:17:31;;;;;;;;;;;;;;;-143.90;100.00;55004.00;2083548;28;19963;-65
2022/03/25 01:18:52;;;;;;;;;;;;;;;-143.90;100.00;54968.25;2089316;28;19946;-64
2022/03/25 01:20:13;;;;;;;;;;;;;;;-143.90;100.00;55007.97;2092067;28;19954;-64
2022/03/25 01:21:35;;;;;;;;;;;;;;;-143.90;100.00;55011.94;2083873;28;19936;-63
2022/03/25 01:22:56;;;;;;;;;;;;;;;-143.90;100.00;54978.19;2089836;28;19920;-64
2022/03/25 01:24:18;;;;;;;;;;;;;;;-143.90;100.00;55007.97;2091419;28;20026;-64
2022/03/25 01:25:39;;;;;;;;;;;;;;;-143.90;100.00;55000.03;2082413;28;19978;-64
2022/03/25 01:27:00;;;;;;;;;;;;;;;-143.90;100.00;54984.16;2088952;28;19925;-64
2022/03/25 01:28:21;;;;;;;;;;;;;;;-143.90;100.00;54980.19;2092133;28;19923;-63
2022/03/25 01:29:42;;;;;;;;;;;;;;;-143.90;100.00;54944.44;2091280;28;19928;-62
2022/03/25 01:31:04;;;;;;;;;;;;;;;-143.90;100.00;54988.13;2091316;28;19935;-64
2022/03/25 01:32:28;;;;;;;;;;;;;;;-143.90;100.00;54968.25;2084978;28;19920;-64
2022/03/25 01:33:49;;;;;;;;;;;;;;;-143.90;100.00;55033.78;2090272;28;20490;-64
2022/03/25 01:35:09;;;;;;;;;;;;;;;-143.90;100.00;55011.94;2091114;28;20010;-64
2022/03/25 01:36:30;;;;;;;;;;;;;;;-143.90;100.00;54964.28;2092547;28;19924;-64
2022/03/25 01:37:51;;;;;;;;;;;;;;;-143.90;100.00;55015.91;2091102;28;19928;-65
2022/03/25 01:39:12;;;;;;;;;;;;;;;-143.90;100.00;54976.19;2092342;28;20457;-64
2022/03/25 01:40:32;;;;;;;;;;;;;;;-143.90;100.00;54988.13;2091940;28;20791;-64
2022/03/25 01:41:55;;;;;;;;;;;;;;;-143.90;100.00;54992.09;2091335;28;19925;-64
2022/03/25 01:43:16;;;;;;;;;;;;;;;-143.90;100.00;54964.28;2082694;28;20039;-63
2022/03/25 01:44:36;;;;;;;;;;;;;;;-143.90;100.00;55007.97;2089310;28;19950;-64
2022/03/25 01:45:57;;;;;;;;;;;;;;;-143.90;100.00;54998.03;2092016;28;20003;-64
2022/03/25 01:47:18;;;;;;;;;;;;;;;-143.90;100.00;54998.03;2084587;28;19928;-64
2022/03/25 01:48:39;;;;;;;;;;;;;;;-143.90;100.00;54992.09;2088309;28;19974;-64
2022/03/25 01:50:00;;;;;;;;;;;;;;;-143.90;100.00;55039.75;2084053;28;19920;-64
2022/03/25 01:51:21;;;;;;;;;;;;;;;-143.90;100.00;54964.28;2089379;28;20019;-64
2022/03/25 01:52:42;;;;;;;;;;;;;;;-143.90;100.00;54996.06;2092803;28;19921;-64
2022/03/25 01:54:04;;;;;;;;;;;;;;;-143.90;100.00;55015.91;2092954;28;19956;-64
2022/03/25 01:55:28;;;;;;;;;;;;;;;-143.90;100.00;54970.25;2092502;28;19924;-64
2022/03/25 01:56:55;;;;;;;;;;;;;;;-143.90;100.00;55011.94;2092983;28;19924;-64
2022/03/25 01:58:16;;;;;;;;;;;;;;;-143.90;100.00;55015.91;2084686;28;19921;-64
2022/03/25 01:59:37;;;;;;;;;;;;;;;-143.90;100.00;54996.06;2089931;28;20334;-64
2022/03/25 02:00:58;;;;;;;;;;;;;;;-143.90;100.00;54988.13;2093094;28;20446;-64
2022/03/25 02:02:19;;;;;;;;;;;;;;;-143.90;100.00;54972.22;2095138;28;19924;-64
2022/03/25 02:03:40;;;;;;;;;;;;;;;-143.90;100.00;54988.13;2094767;28;19999;-64
2022/03/25 02:05:01;;;;;;;;;;;;;;;-143.90;100.00;55006.00;2084273;28;19925;-64
2022/03/25 02:06:21;;;;;;;;;;;;;;;-143.90;100.00;54982.16;2091084;28;19971;-63
2022/03/25 02:07:43;;;;;;;;;;;;;;;-143.90;100.00;55019.88;2084649;28;20149;-64
2022/03/25 02:09:04;;;;;;;;;;;;;;;-143.90;100.00;54980.19;2082822;28;19928;-64
2022/03/25 02:10:25;;;;;;;;;;;;;;;-143.90;100.00;55023.84;2092311;28;19927;-64
2022/03/25 02:11:45;;;;;;;;;;;;;;;-143.90;100.00;55004.00;2076849;28;20426;-64
2022/03/25 02:13:08;;;;;;;;;;;;;;;-143.90;100.00;55004.00;2088229;28;19991;-64
2022/03/25 02:14:29;;;;;;;;;;;;;;;-143.90;100.00;54982.16;2082428;28;20284;-64
2022/03/25 02:15:50;;;;;;;;;;;;;;;-143.90;100.00;54976.19;2089430;28;20725;-64
2022/03/25 02:17:11;;;;;;;;;;;;;;;-143.90;100.00;54960.31;2083794;28;20011;-64
2022/03/25 02:18:32;;;;;;;;;;;;;;;-143.90;100.00;54996.06;2089802;28;20830;-64
2022/03/25 02:19:52;;;;;;;;;;;;;;;-143.90;100.00;54966.28;2083960;28;19942;-64
2022/03/25 02:21:13;;;;;;;;;;;;;;;-143.90;100.00;54996.06;2082204;28;20450;-64
2022/03/25 02:22:37;;;;;;;;;;;;;;;-143.90;100.00;54952.38;2090817;28;19993;-64
2022/03/25 02:23:59;;;;;;;;;;;;;;;-143.90;100.00;54960.31;2092461;28;19958;-64
2022/03/25 02:25:20;;;;;;;;;;;;;;;-143.90;100.00;55021.88;2094568;28;19951;-64
2022/03/25 02:26:42;;;;;;;;;;;;;;;-143.90;100.00;55011.94;2076283;28;19921;-64
2022/03/25 02:28:04;;;;;;;;;;;;;;;-143.90;100.00;54944.44;2081246;28;19925;-63
2022/03/25 02:29:25;;;;;;;;;;;;;;;-143.90;100.00;54968.25;2089895;28;19947;-64
2022/03/25 02:30:46;;;;;;;;;;;;;;;-143.90;100.00;55000.03;2093313;28;19920;-64
2022/03/25 02:32:08;;;;;;;;;;;;;;;-143.90;100.00;55033.78;2084331;28;20399;-63
2022/03/25 02:33:29;;;;;;;;;;;;;;;-143.90;100.00;55006.00;2089757;28;19920;-64
2022/03/25 02:34:50;;;;;;;;;;;;;;;-143.90;100.00;54988.13;2085573;28;19924;-64
2022/03/25 02:36:11;;;;;;;;;;;;;;;-143.90;100.00;54988.13;2087892;28;20015;-64
2022/03/25 02:37:32;;;;;;;;;;;;;;;-143.90;100.00;54980.19;2093882;28;19924;-64
2022/03/25 02:38:53;;;;;;;;;;;;;;;-143.90;100.00;54976.19;2085268;28;20475;-64
2022/03/25 02:40:13;;;;;;;;;;;;;;;-143.90;100.00;54996.06;2090447;28;19931;-64
2022/03/25 02:41:34;;;;;;;;;;;;;;;-143.90;100.00;55051.66;2084743;28;19924;-64
2022/03/25 02:42:55;;;;;;;;;;;;;;;-143.90;100.00;54972.22;2083285;28;20590;-64
2022/03/25 02:44:16;;;;;;;;;;;;;;;-143.90;100.00;54976.19;2091097;28;19921;-64
2022/03/25 02:45:40;;;;;;;;;;;;;;;-143.90;100.00;54984.16;2082286;28;19992;-64
2022/03/25 02:47:01;;;;;;;;;;;;;;;-143.90;100.00;54992.09;2090469;28;19926;-64
2022/03/25 02:48:22;;;;;;;;;;;;;;;-143.90;100.00;55000.03;2083685;28;19920;-63
2022/03/25 02:49:44;;;;;;;;;;;;;;;-143.90;100.00;54976.19;2079726;28;19924;-64
2022/03/25 02:51:05;;;;;;;;;;;;;;;-143.90;100.00;54988.13;2087844;28;20254;-64
2022/03/25 02:52:25;;;;;;;;;;;;;;;-143.90;100.00;55027.81;2093809;28;20380;-64
2022/03/25 02:53:46;;;;;;;;;;;;;;;-143.90;100.00;55011.94;2093712;28;20967;-64
2022/03/25 02:55:08;;;;;;;;;;;;;;;-143.90;100.00;54996.06;2094465;28;19920;-64
2022/03/25 02:56:29;;;;;;;;;;;;;;;-143.90;100.00;55051.66;2092263;28;19951;-64
2022/03/25 02:57:49;;;;;;;;;;;;;;;-143.90;100.00;55000.03;2093557;28;19924;-64
2022/03/25 02:59:10;;;;;;;;;;;;;;;-143.90;100.00;54988.13;2093956;28;19930;-64
2022/03/25 03:00:31;;;;;;;;;;;;;;;-143.90;100.00;55031.78;2093180;28;20025;-64
2022/03/25 03:01:52;;;;;;;;;;;;;;;-143.90;100.00;55000.03;2094293;28;19927;-64
2022/03/25 03:03:13;;;;;;;;;;;;;;;-143.90;100.00;55009.97;2094470;28;19965;-64
2022/03/25 03:04:33;;;;;;;;;;;;;;;-143.90;100.00;55002.00;2092358;28;19924;-64
2022/03/25 03:05:54;;;;;;;;;;;;;;;-143.90;100.00;54988.13;2094180;28;19920;-64
2022/03/25 03:07:16;;;;;;;;;;;;;;;-143.90;100.00;55011.94;2093115;28;19920;-64
2022/03/25 03:08:37;;;;;;;;;;;;;;;-143.90;100.00;55000.03;2093008;28;20013;-64
2022/03/25 03:09:58;;;;;;;;;;;;;;;-143.90;100.00;55007.97;2092298;28;20017;-64
2022/03/25 03:11:19;;;;;;;;;;;;;;;-143.90;100.00;54988.13;2092649;28;19924;-64
2022/03/25 03:12:41;;;;;;;;;;;;;;;-143.90;100.00;55004.00;2085801;28;19928;-64
2022/03/25 03:14:05;;;;;;;;;;;;;;;-143.90;100.00;55035.78;2090582;28;20404;-65
2022/03/25 03:15:25;;;;;;;;;;;;;;;-143.90;100.00;54968.25;2092955;28;20462;-64
2022/03/25 03:16:47;;;;;;;;;;;;;;;-143.90;100.00;55015.91;2092350;28;20412;-64
2022/03/25 03:18:07;;;;;;;;;;;;;;;-143.90;100.00;54980.19;2092976;28;20471;-62
2022/03/25 03:19:28;;;;;;;;;;;;;;;-143.90;100.00;55011.94;2093206;28;19928;-64
2022/03/25 03:20:49;;;;;;;;;;;;;;;-143.90;100.00;55011.94;2094352;28;20383;-64
2022/03/25 03:22:10;;;;;;;;;;;;;;;-143.90;100.00;55004.00;2093663;28;20436;-64
2022/03/25 03:23:31;;;;;;;;;;;;;;;-143.90;100.00;55019.88;2093067;28;20459;-64
2022/03/25 03:24:52;;;;;;;;;;;;;;;-143.90;100.00;55007.97;2091842;28;19927;-64
2022/03/25 03:26:12;;;;;;;;;;;;;;;-143.90;100.00;54984.16;2093071;28;19986;-64
2022/03/25 03:27:34;;;;;;;;;;;;;;;-143.90;100.00;54976.19;2094420;28;20606;-64
2022/03/25 03:28:54;;;;;;;;;;;;;;;-143.90;100.00;54992.09;2094858;28;19920;-64
2022/03/25 03:30:15;;;;;;;;;;;;;;;-143.90;100.00;55027.81;2093420;28;20018;-65
2022/03/25 03:31:35;;;;;;;;;;;;;;;-143.90;100.00;54996.06;2092930;28;19924;-64
2022/03/25 03:32:58;;;;;;;;;;;;;;;-143.90;100.00;54960.31;2093584;28;19921;-64
2022/03/25 03:34:18;;;;;;;;;;;;;;;-143.90;100.00;55011.94;2093095;28;20323;-64
2022/03/25 03:35:39;;;;;;;;;;;;;;;-143.90;100.00;54976.19;2093615;28;20062;-64
2022/03/25 03:37:00;;;;;;;;;;;;;;;-143.90;100.00;55004.00;2089802;28;22668;-63
2022/03/25 03:38:21;;;;;;;;;;;;;;;-143.90;100.00;54992.09;2093929;28;20521;-64
2022/03/25 03:39:42;;;;;;;;;;;;;;;-143.90;100.00;54996.06;2093197;28;19928;-64
2022/03/25 03:41:02;;;;;;;;;;;;;;;-143.90;100.00;55019.88;2093148;28;19921;-62
2022/03/25 03:42:23;;;;;;;;;;;;;;;-143.90;100.00;55019.88;2093485;28;20038;-62
2022/03/25 03:43:44;;;;;;;;;;;;;;;-143.90;100.00;55007.97;2093685;28;20069;-62
2022/03/25 03:45:06;;;;;;;;;;;;;;;-143.90;100.00;54988.13;2092954;28;19920;-62
2022/03/25 03:46:26;;;;;;;;;;;;;;;-143.90;100.00;55011.94;2093493;28;19927;-62
2022/03/25 03:47:47;;;;;;;;;;;;;;;-143.90;100.00;54960.31;2093705;28;19920;-62
2022/03/25 03:49:08;;;;;;;;;;;;;;;-143.90;100.00;54980.19;2092636;28;19999;-62
2022/03/25 03:50:29;;;;;;;;;;;;;;;-143.90;100.00;55013.94;2091805;28;20581;-62
2022/03/25 03:51:49;;;;;;;;;;;;;;;-143.90;100.00;54976.19;2093883;28;20417;-64
2022/03/25 03:53:10;;;;;;;;;;;;;;;-143.90;100.00;54994.06;2094321;28;19970;-62
2022/03/25 03:54:34;;;;;;;;;;;;;;;-143.90;100.00;55007.97;2092954;28;20380;-62
2022/03/25 03:56:14;;;;;;;;;;;;;;;-143.90;100.00;54962.31;2091152;28;19921;-62
2022/03/25 03:57:35;;;;;;;;;;;;;;;-143.90;100.00;54992.09;2092890;28;19931;-62
2022/03/25 03:58:56;;;;;;;;;;;;;;;-143.90;100.00;54992.09;2092161;28;19928;-62
2022/03/25 04:00:17;;;;;;;;;;;;;;;-143.90;100.00;54982.16;2092510;28;19927;-62
2022/03/25 04:01:37;;;;;;;;;;;;;;;-143.90;100.00;54982.16;2094518;28;19920;-62
2022/03/25 04:02:58;;;;;;;;;;;;;;;-143.90;100.00;55007.97;2093121;28;20414;-61
2022/03/25 04:04:19;;;;;;;;;;;;;;;-143.90;100.00;54994.06;2094155;28;19924;-61
2022/03/25 04:05:40;;;;;;;;;;;;;;;-143.90;100.00;55007.97;2092320;28;19928;-62
2022/03/25 04:07:00;;;;;;;;;;;;;;;-143.90;100.00;54968.25;2093637;28;19921;-61
2022/03/25 04:08:23;;;;;;;;;;;;;;;-143.90;100.00;54992.09;2091947;28;21088;-62
2022/03/25 04:09:44;;;;;;;;;;;;;;;-143.90;100.00;54964.28;2092761;28;20002;-62
2022/03/25 04:11:04;;;;;;;;;;;;;;;-143.90;100.00;54992.09;2094391;28;19916;-62
2022/03/25 04:12:25;;;;;;;;;;;;;;;-143.90;100.00;54972.22;2091790;28;19921;-61
2022/03/25 04:13:46;;;;;;;;;;;;;;;-143.90;100.00;54982.16;2093497;28;19924;-61
2022/03/25 04:15:10;;;;;;;;;;;;;;;-143.90;100.00;54968.25;2094325;28;20433;-62
2022/03/25 04:16:30;;;;;;;;;;;;;;;-143.90;100.00;54964.28;2091455;28;20429;-61
2022/03/25 04:17:51;;;;;;;;;;;;;;;-143.90;100.00;54988.13;2093662;28;20383;-61
2022/03/25 04:19:12;;;;;;;;;;;;;;;-143.90;100.00;54964.28;2094255;28;20011;-62
2022/03/25 04:20:34;;;;;;;;;;;;;;;-143.90;100.00;54964.28;2092471;28;19924;-62
2022/03/25 04:21:55;;;;;;;;;;;;;;;-143.90;100.00;55015.91;2091059;28;19927;-61
2022/03/25 04:23:16;;;;;;;;;;;;;;;-143.90;100.00;54992.09;2093120;28;20003;-61
2022/03/25 04:24:37;;;;;;;;;;;;;;;-143.90;100.00;54972.22;2092293;28;19928;-61
2022/03/25 04:25:57;;;;;;;;;;;;;;;-143.90;100.00;55002.00;2085056;28;19958;-60
2022/03/25 04:27:23;;;;;;;;;;;;;;;-143.90;100.00;55004.00;2086137;28;19936;-62
2022/03/25 04:28:43;;;;;;;;;;;;;;;-143.90;100.00;54992.09;2085175;28;20929;-62
2022/03/25 04:30:04;;;;;;;;;;;;;;;-143.90;100.00;55004.00;2084873;28;20542;-63
2022/03/25 04:31:25;;;;;;;;;;;;;;;-143.90;100.00;54996.06;2084165;28;19999;-62
2022/03/25 04:32:46;;;;;;;;;;;;;;;-143.90;100.00;54982.16;2084726;28;19947;-62
2022/03/25 04:34:07;;;;;;;;;;;;;;;-143.90;100.00;54972.22;2077220;28;19921;-62
2022/03/25 04:35:28;;;;;;;;;;;;;;;-143.90;100.00;54980.19;2082921;28;19999;-60
2022/03/25 04:36:49;;;;;;;;;;;;;;;-143.90;100.00;54960.31;2086338;28;19932;-61
2022/03/25 04:38:10;;;;;;;;;;;;;;;-143.90;100.00;54992.09;2083910;28;19921;-62
2022/03/25 04:39:30;;;;;;;;;;;;;;;-143.90;100.00;55004.00;2082859;28;19927;-62
2022/03/25 04:40:51;;;;;;;;;;;;;;;-143.90;100.00;54992.09;2084357;28;20327;-62
2022/03/25 04:42:12;;;;;;;;;;;;;;;-143.90;100.00;54994.06;2084287;28;20007;-61
2022/03/25 04:43:33;;;;;;;;;;;;;;;-143.90;100.00;54996.06;2085145;28;19948;-62
2022/03/25 04:44:54;;;;;;;;;;;;;;;-143.90;100.00;54996.06;2084842;28;19926;-62
2022/03/25 04:46:14;;;;;;;;;;;;;;;-143.90;100.00;54980.19;2083027;28;20379;-61
2022/03/25 04:47:35;;;;;;;;;;;;;;;-143.90;100.00;55007.97;2083509;28;19994;-62
2022/03/25 04:48:56;;;;;;;;;;;;;;;-143.90;100.00;55031.78;2085670;28;19921;-62
2022/03/25 04:50:17;;;;;;;;;;;;;;;-143.90;100.00;54988.13;2084501;28;19921;-62
2022/03/25 04:51:38;;;;;;;;;;;;;;;-143.90;100.00;54976.19;2086285;28;19927;-61
2022/03/25 04:52:59;;;;;;;;;;;;;;;-143.90;100.00;54976.19;2085019;28;19917;-62
2022/03/25 04:54:20;;;;;;;;;;;;;;;-143.90;100.00;54978.19;2083368;28;19921;-62
2022/03/25 04:55:40;;;;;;;;;;;;;;;-143.90;100.00;54996.06;2079726;28;19924;-62
2022/03/25 04:57:01;;;;;;;;;;;;;;;-143.90;100.00;54980.19;2083163;28;19929;-61
2022/03/25 04:58:22;;;;;;;;;;;;;;;-143.90;100.00;54984.16;2071514;28;19964;-62
2022/03/25 04:59:43;;;;;;;;;;;;;;;-143.90;100.00;54964.28;2078068;28;19967;-62
2022/03/25 05:01:03;;;;;;;;;;;;;;;-143.90;100.00;54976.19;2074304;28;19925;-62
2022/03/25 05:02:24;;;;;;;;;;;;;;;-143.90;100.00;54956.34;2078810;28;20012;-62
2022/03/25 05:03:45;;;;;;;;;;;;;;;-143.90;100.00;55002.00;2082887;28;20481;-62
2022/03/25 05:05:06;;;;;;;;;;;;;;;-143.90;100.00;54996.06;2081845;28;20402;-62
2022/03/25 05:06:26;;;;;;;;;;;;;;;-143.90;100.00;54954.38;2082106;28;19931;-62
2022/03/25 05:07:47;;;;;;;;;;;;;;;-143.90;100.00;54960.31;2082560;28;20467;-62
2022/03/25 05:09:10;;;;;;;;;;;;;;;-143.90;100.00;55011.94;2084588;28;19920;-61
2022/03/25 05:10:31;;;;;;;;;;;;;;;-143.90;100.00;54954.38;2083900;28;19923;-62
2022/03/25 05:11:53;;;;;;;;;;;;;;;-143.90;100.00;55015.91;2075949;28;20027;-62
2022/03/25 05:13:13;;;;;;;;;;;;;;;-143.90;100.00;54976.19;2076512;28;20345;-62
2022/03/25 05:14:34;;;;;;;;;;;;;;;-143.90;100.00;54996.06;2078678;28;20503;-62
2022/03/25 05:15:55;;;;;;;;;;;;;;;-143.90;100.00;54966.28;2082861;28;19923;-62
2022/03/25 05:17:15;;;;;;;;;;;;;;;-143.90;100.00;54964.28;2084170;28;20420;-62
2022/03/25 05:18:37;;;;;;;;;;;;;;;-143.90;100.00;54970.25;2083848;28;19920;-62
2022/03/25 05:19:57;;;;;;;;;;;;;;;-143.90;100.00;54996.06;2083887;28;19924;-61
2022/03/25 05:21:18;;;;;;;;;;;;;;;-143.90;100.00;54978.19;2084314;28;20028;-62
2022/03/25 05:22:39;;;;;;;;;;;;;;;-143.90;100.00;54976.19;2085204;28;19920;-62
2022/03/25 05:23:59;;;;;;;;;;;;;;;-143.90;100.00;54980.19;2083207;28;19996;-62
2022/03/25 05:25:20;;;;;;;;;;;;;;;-143.90;100.00;54964.28;2083759;28;19971;-62
2022/03/25 05:26:41;;;;;;;;;;;;;;;-143.90;100.00;54980.19;2082997;28;19936;-61
2022/03/25 05:28:02;;;;;;;;;;;;;;;-143.90;100.00;54968.25;2084358;28;19921;-62
2022/03/25 05:29:23;;;;;;;;;;;;;;;-143.90;100.00;54956.34;2084233;28;19921;-62
2022/03/25 05:30:44;;;;;;;;;;;;;;;-143.90;100.00;54956.34;2084730;28;20113;-62
2022/03/25 05:32:05;;;;;;;;;;;;;;;-143.90;100.00;55004.00;2084665;28;19955;-62
2022/03/25 05:33:26;;;;;;;;;;;;;;;-143.90;100.00;54992.09;2085707;28;19924;-62
2022/03/25 05:34:47;;;;;;;;;;;;;;;-143.90;100.00;54976.19;2085596;28;19956;-62
2022/03/25 05:36:08;;;;;;;;;;;;;;;-143.90;100.00;55023.84;2085667;28;20011;-62
2022/03/25 05:37:29;;;;;;;;;;;;;;;-143.90;100.00;54988.13;2085161;28;19978;-62
2022/03/25 05:38:51;;;;;;;;;;;;;;;-143.90;100.00;54944.44;2087214;28;19921;-62
2022/03/25 05:40:12;;;;;;;;;;;;;;;-143.90;100.00;54980.19;2072710;28;19924;-62
2022/03/25 05:41:33;;;;;;;;;;;;;;;-143.90;100.00;54986.13;2081659;28;19974;-62
2022/03/25 05:42:54;;;;;;;;;;;;;;;-143.90;100.00;54996.06;2085526;28;19920;-62
2022/03/25 05:44:15;;;;;;;;;;;;;;;-143.90;100.00;55019.88;2084885;28;19928;-62
2022/03/25 05:45:35;;;;;;;;;;;;;;;-143.90;100.00;54972.22;2085095;28;20330;-62
2022/03/25 05:46:56;;;;;;;;;;;;;;;-143.90;100.00;55007.97;2077003;28;19944;-62
2022/03/25 05:48:17;;;;;;;;;;;;;;;-143.90;100.00;54952.38;2083843;28;20392;-60
2022/03/25 05:49:38;;;;;;;;;;;;;;;-143.90;100.00;54990.09;2085704;28;19923;-62
2022/03/25 05:50:58;;;;;;;;;;;;;;;-143.90;100.00;54988.13;2083679;28;19932;-60
2022/03/25 05:52:19;;;;;;;;;;;;;;;-143.90;100.00;54988.13;2086201;28;19917;-61
2022/03/25 05:53:40;;;;;;;;;;;;;;;-143.90;100.00;54970.25;2084760;28;19972;-61
2022/03/25 05:55:04;;;;;;;;;;;;;;;-143.90;100.00;55031.78;2086127;28;20020;-61
2022/03/25 05:56:25;;;;;;;;;;;;;;;-143.90;100.00;54952.38;2086682;28;19920;-59
2022/03/25 05:57:46;;;;;;;;;;;;;;;-143.90;100.00;55007.97;2084777;28;20292;-61
2022/03/25 05:59:06;;;;;;;;;;;;;;;-143.90;100.00;55031.78;2084667;28;19921;-61
2022/03/25 06:00:27;;;;;;;;;;;;;;;-143.90;100.00;54958.34;2084458;28;19917;-62
2022/03/25 06:01:48;;;;;;;;;;;;;;;-143.90;100.00;54956.34;2085026;28;19924;-60
2022/03/25 06:03:10;;;;;;;;;;;;;;;-143.90;100.00;54996.06;2085969;28;20414;-62
2022/03/25 06:04:30;;;;;;;;;;;;;;;-143.90;100.00;54982.16;2085995;28;20602;-60
2022/03/25 06:05:51;;;;;;;;;;;;;;;-143.90;100.00;54994.06;2085372;28;19916;-61
2022/03/25 06:07:12;;;;;;;;;;;;;;;-143.90;100.00;55011.94;2085739;28;19920;-61
2022/03/25 06:08:33;;;;;;;;;;;;;;;-143.90;100.00;55009.97;2085693;28;19978;-62
2022/03/25 06:09:56;;;;;;;;;;;;;;;-143.90;100.00;54978.19;2086269;28;19931;-61
2022/03/25 06:11:16;;;;;;;;;;;;;;;-143.90;100.00;54980.19;2085842;28;20533;-61
2022/03/25 06:12:37;;;;;;;;;;;;;;;-143.90;100.00;55000.03;2085498;28;20465;-61
2022/03/25 06:13:58;;;;;;;;;;;;;;;-143.90;100.00;55021.88;2084925;28;19940;-62
2022/03/25 06:15:19;;;;;;;;;;;;;;;-143.90;100.00;54986.13;2084383;28;20292;-61
2022/03/25 06:16:39;;;;;;;;;;;;;;;-143.90;100.00;54988.13;2085845;28;19924;-61
2022/03/25 06:18:00;;;;;;;;;;;;;;;-143.90;100.00;55027.81;2086465;28;19943;-61
2022/03/25 06:19:21;;;;;;;;;;;;;;;-143.90;100.00;54960.31;2085126;28;19917;-62
2022/03/25 06:20:41;;;;;;;;;;;;;;;-143.90;100.00;55023.84;2086409;28;19917;-62
2022/03/25 06:22:02;;;;;;;;;;;;;;;-143.90;100.00;54956.34;2085032;28;19916;-62
2022/03/25 06:23:23;;;;;;;;;;;;;;;-143.90;100.00;55000.03;2086410;28;19998;-62
2022/03/25 06:24:44;;;;;;;;;;;;;;;-143.90;100.00;54980.19;2085588;28;19956;-62
2022/03/25 06:26:05;;;;;;;;;;;;;;;-143.90;100.00;55007.97;2085868;28;19932;-62
2022/03/25 06:27:25;;;;;;;;;;;;;;;-143.90;100.00;54998.03;2085029;28;20370;-62
2022/03/25 06:28:46;;;;;;;;;;;;;;;-143.90;100.00;54968.25;2083879;28;19921;-62
2022/03/25 06:30:07;;;;;;;;;;;;;;;-143.90;100.00;54996.06;2084714;28;19916;-63
2022/03/25 06:31:27;;;;;;;;;;;;;;;-143.90;100.00;55025.84;2084482;28;19920;-61
2022/03/25 06:32:48;;;;;;;;;;;;;;;-143.90;100.00;54980.19;2084505;28;19990;-65
2022/03/25 06:34:09;;;;;;;;;;;;;;;-143.90;100.00;55009.97;2085624;28;19931;-65
2022/03/25 06:35:30;;;;;;;;;;;;;;;-143.90;100.00;54936.50;2083841;28;19971;-65
2022/03/25 06:36:50;;;;;;;;;;;;;;;-143.90;100.00;55000.03;2085575;28;19924;-64
2022/03/25 06:38:11;;;;;;;;;;;;;;;-143.90;100.00;54968.25;2085919;28;20400;-65
2022/03/25 06:39:32;;;;;;;;;;;;;;;-143.90;100.00;55011.94;2085327;28;19927;-65
2022/03/25 06:40:53;;;;;;;;;;;;;;;-143.90;100.00;54952.38;2083911;28;20380;-65
2022/03/25 06:42:13;;;;;;;;;;;;;;;-143.90;100.00;55007.97;2084728;28;19984;-64
2022/03/25 06:43:34;;;;;;;;;;;;;;;-143.90;100.00;55007.97;2085996;28;19960;-65
2022/03/25 06:44:55;;;;;;;;;;;;;;;-143.90;100.00;54994.06;2084554;28;20035;-65
2022/03/25 06:46:17;;;;;;;;;;;;;;;-143.90;100.00;54928.56;2084696;28;20584;-65